dimanche 6 avril 2014

ALERTE SPOTTING 06/04/14

346 9H-SEA Hifly
   CU444/CU445  reporté à demain 07/04/14



320 F-GHQE Air Corsica (blanc avec titre)
  XK4501/XK4500   07h35/08h30

76W I-NDMJ Neos
   CRL991/CRL090 07h17/08h25

744 EC-KQC Pullmantur Air
  PLM6121/PLM710P 07h44/10h20

752 G-ZAPX Titan Airways
   dpt EC8001 10h45

73H CN-RGN RAM (sticker 50th 737)
   AT650/AT657  12h30/13h20
 AT656/AT651  20h35/21h40

772 F-GSPQ Air France
   AF381Y/AF644  14h50/17h55

  H25 CS-DRW
  NJE195R/950E 14h05/15h15

32A EC-LVP Vueling (couleur Linking Europe)

   dpt VY7900 11h35
 arv  VY7901 20h15


Manque les prévisions/immats BE / certains IB / AZ / TP / TU / BA / AH / KM
*** Heures en Local Time **
Prévisions matinales soumises à modifications de dernières minute. Voir le log du mois pour la version 'définitive' de la journée: http://www.airkalo.com/ORLYAVIATION/Logdumois.html

le TAF de la journée:
METAR: LFPO 060230Z 23004KT 9999 BKN045 13/11 Q1018 NOSIG=
TAF LONG: LFPO 052300Z 0600/0706 22007KT 9999 BKN040 BECMG 0601/0603 BKN009
TEMPO 0605/0610 2500 -RADZ BKN003 BECMG 0610/0612 BKN015 BECMG
0615/0618 BKN025 TEMPO 0620/0703 CAVOK TEMPO 0703/0706 SCT003 BKN009=